Time;durP1;ratioP1;P1;durP2;ratioP2;P2;SDS_P1;SDS_P2;PMS_P1;PMS_P2;Temp;Humidity;BMP_temperature;BMP_pressure;BME280_temperature;BME280_humidity;BME280_pressure;Samples;Min_cycle;Max_cycle;Signal;HPM_P1;HPM_P2
2022/04/03 00:00:21;;;;;;;10.57;8.03;;;;;;;;;;5127224;27;20569;-73
2022/04/03 00:02:48;;;;;;;10.00;7.20;;;;;;;;;;5119183;27;20508;-73
2022/04/03 00:05:16;;;;;;;10.70;7.00;;;;;;;;;;5118322;27;20474;-72
2022/04/03 00:07:43;;;;;;;7.73;6.70;;;;;;;;;;5130977;27;20918;-72
2022/04/03 00:10:11;;;;;;;9.63;7.10;;;;;;;;;;5131012;27;20811;-73
2022/04/03 00:12:40;;;;;;;8.93;6.80;;;;;;;;;;5109571;27;20547;-72
2022/04/03 00:15:07;;;;;;;7.60;6.53;;;;;;;;;;5121828;27;20936;-73
2022/04/03 00:17:34;;;;;;;9.30;6.80;;;;;;;;;;5123868;27;20506;-73
2022/04/03 00:20:02;;;;;;;8.97;7.37;;;;;;;;;;5125494;27;20443;-73
2022/04/03 00:22:29;;;;;;;8.97;6.60;;;;;;;;;;5135397;27;20485;-72
2022/04/03 00:24:57;;;;;;;8.63;7.20;;;;;;;;;;5128140;27;20451;-72
2022/04/03 00:27:26;;;;;;;8.93;6.10;;;;;;;;;;5126007;27;20442;-72
2022/04/03 00:29:53;;;;;;;9.10;6.37;;;;;;;;;;5131300;28;20451;-72
2022/04/03 00:32:20;;;;;;;8.13;6.77;;;;;;;;;;5129392;27;20946;-72
2022/04/03 00:34:47;;;;;;;11.40;7.13;;;;;;;;;;5115153;28;20450;-72
2022/04/03 00:37:14;;;;;;;10.40;7.40;;;;;;;;;;5111431;28;20458;-72
2022/04/03 00:39:42;;;;;;;12.37;9.80;;;;;;;;;;5125798;28;20995;-71
2022/04/03 00:42:09;;;;;;;11.43;7.63;;;;;;;;;;5124566;27;20482;-72
2022/04/03 00:44:38;;;;;;;9.90;7.10;;;;;;;;;;5130514;28;20457;-72
2022/04/03 00:47:05;;;;;;;9.50;7.53;;;;;;;;;;5120484;28;20458;-73
2022/04/03 00:49:33;;;;;;;14.27;8.40;;;;;;;;;;5127091;27;20492;-71
2022/04/03 00:52:00;;;;;;;10.93;8.33;;;;;;;;;;5130170;27;20495;-73
2022/04/03 00:54:27;;;;;;;10.93;7.63;;;;;;;;;;5125564;28;20454;-71
2022/04/03 00:56:55;;;;;;;9.73;6.77;;;;;;;;;;5126213;27;20539;-71
2022/04/03 00:59:22;;;;;;;11.30;7.80;;;;;;;;;;5126438;28;20499;-72
2022/04/03 01:01:50;;;;;;;9.47;6.73;;;;;;;;;;5129717;27;20446;-72
2022/04/03 01:04:18;;;;;;;10.13;8.00;;;;;;;;;;5125350;28;20455;-71
2022/04/03 01:06:45;;;;;;;7.93;7.13;;;;;;;;;;5126862;27;20973;-72
2022/04/03 01:09:12;;;;;;;8.30;6.90;;;;;;;;;;5129211;27;20453;-71
2022/04/03 01:11:40;;;;;;;8.40;6.63;;;;;;;;;;5123991;27;20501;-71
2022/04/03 01:14:07;;;;;;;7.87;6.40;;;;;;;;;;5130020;28;20942;-71
2022/04/03 01:16:35;;;;;;;9.23;6.73;;;;;;;;;;5126805;27;20537;-72
2022/04/03 01:19:04;;;;;;;10.50;7.30;;;;;;;;;;5121082;28;20449;-71
2022/04/03 01:21:31;;;;;;;11.70;8.20;;;;;;;;;;5130180;27;20443;-71
2022/04/03 01:23:58;;;;;;;10.37;8.13;;;;;;;;;;5125371;27;20534;-72
2022/04/03 01:26:28;;;;;;;9.23;7.67;;;;;;;;;;5128099;27;20447;-72
2022/04/03 01:28:55;;;;;;;12.43;7.97;;;;;;;;;;5106367;27;20448;-72
2022/04/03 01:31:22;;;;;;;12.40;9.10;;;;;;;;;;5120795;27;20944;-72
2022/04/03 01:33:50;;;;;;;16.47;9.30;;;;;;;;;;5128744;27;20538;-70
2022/04/03 01:36:17;;;;;;;11.13;8.57;;;;;;;;;;5130115;27;20762;-71
2022/04/03 01:38:44;;;;;;;12.80;9.40;;;;;;;;;;5109609;27;20470;-70
2022/04/03 01:41:12;;;;;;;12.90;8.40;;;;;;;;;;5129309;27;20526;-71
2022/04/03 01:43:40;;;;;;;10.47;7.53;;;;;;;;;;5120751;27;20528;-72
2022/04/03 01:46:08;;;;;;;11.43;8.50;;;;;;;;;;5125661;27;20443;-72
2022/04/03 01:48:35;;;;;;;13.37;8.30;;;;;;;;;;5132899;27;20443;-71
2022/04/03 01:51:02;;;;;;;12.20;8.20;;;;;;;;;;5122904;27;20460;-71
2022/04/03 01:53:29;;;;;;;12.33;7.30;;;;;;;;;;5130262;27;20534;-71
2022/04/03 01:56:00;;;;;;;13.63;10.20;;;;;;;;;;5130530;27;20939;-71
2022/04/03 01:58:27;;;;;;;8.83;6.80;;;;;;;;;;5124836;27;20488;-71
2022/04/03 02:00:56;;;;;;;9.20;6.57;;;;;;;;;;5129734;27;20447;-71
2022/04/03 02:03:23;;;;;;;8.80;7.13;;;;;;;;;;5128460;27;21021;-71
2022/04/03 02:05:51;;;;;;;10.90;7.13;;;;;;;;;;5121585;27;20454;-72
2022/04/03 02:08:18;;;;;;;8.90;6.87;;;;;;;;;;5133063;27;20465;-71
2022/04/03 02:10:45;;;;;;;9.67;7.13;;;;;;;;;;5132974;27;20446;-72
2022/04/03 02:13:12;;;;;;;9.20;6.33;;;;;;;;;;5132975;27;20481;-72
2022/04/03 02:15:40;;;;;;;10.67;7.40;;;;;;;;;;5133841;27;20450;-71
2022/04/03 02:18:09;;;;;;;11.23;7.50;;;;;;;;;;5129560;27;20443;-71
2022/04/03 02:20:39;;;;;;;9.90;7.10;;;;;;;;;;5132105;27;20486;-71
2022/04/03 02:23:06;;;;;;;11.10;7.73;;;;;;;;;;5130320;27;20474;-71
2022/04/03 02:25:33;;;;;;;9.90;7.27;;;;;;;;;;5116301;27;20446;-71
2022/04/03 02:28:01;;;;;;;9.23;8.00;;;;;;;;;;5113007;27;20444;-71
2022/04/03 02:30:28;;;;;;;13.20;8.00;;;;;;;;;;5124883;27;20450;-71
2022/04/03 02:32:55;;;;;;;15.40;9.73;;;;;;;;;;5103438;27;20535;-71
2022/04/03 02:35:24;;;;;;;8.10;6.73;;;;;;;;;;5118072;27;20518;-71
2022/04/03 02:37:51;;;;;;;8.90;7.17;;;;;;;;;;5108409;27;20448;-72
2022/04/03 02:40:18;;;;;;;10.23;7.13;;;;;;;;;;5099201;27;20820;-71
2022/04/03 02:42:46;;;;;;;8.90;7.67;;;;;;;;;;5120666;27;20488;-72
2022/04/03 02:45:15;;;;;;;9.37;6.77;;;;;;;;;;5126487;27;20455;-72
2022/04/03 02:47:48;;;;;;;11.27;7.27;;;;;;;;;;5119731;27;20447;-72
2022/04/03 02:50:16;;;;;;;11.27;7.90;;;;;;;;;;5116599;27;20451;-71
2022/04/03 02:52:45;;;;;;;10.83;8.20;;;;;;;;;;5114192;27;20827;-71
2022/04/03 02:55:12;;;;;;;10.30;7.13;;;;;;;;;;5125625;27;21031;-72
2022/04/03 02:57:39;;;;;;;11.40;7.87;;;;;;;;;;5133128;27;20439;-72
2022/04/03 03:00:07;;;;;;;8.90;8.00;;;;;;;;;;5127705;27;20478;-71
2022/04/03 03:02:34;;;;;;;10.53;7.03;;;;;;;;;;5129534;27;20538;-72
2022/04/03 03:05:04;;;;;;;8.90;7.10;;;;;;;;;;5117759;27;20454;-72
2022/04/03 03:07:37;;;;;;;7.77;6.47;;;;;;;;;;5130661;27;20449;-70
2022/04/03 03:10:06;;;;;;;9.70;6.80;;;;;;;;;;5129144;27;20435;-71
2022/04/03 03:12:33;;;;;;;8.77;6.77;;;;;;;;;;5132548;27;20939;-72
2022/04/03 03:15:00;;;;;;;9.60;7.33;;;;;;;;;;5132048;27;20526;-72
2022/04/03 03:17:28;;;;;;;10.33;6.73;;;;;;;;;;5127225;27;20529;-72
2022/04/03 03:19:55;;;;;;;7.47;6.60;;;;;;;;;;5132210;27;20470;-72
2022/04/03 03:22:23;;;;;;;9.40;6.60;;;;;;;;;;5120853;27;20504;-72
2022/04/03 03:24:50;;;;;;;7.83;6.00;;;;;;;;;;5123936;27;20860;-72
2022/04/03 03:27:19;;;;;;;9.17;6.23;;;;;;;;;;5119213;27;21302;-72
2022/04/03 03:29:46;;;;;;;10.03;7.47;;;;;;;;;;5125408;27;20436;-72
2022/04/03 03:32:13;;;;;;;7.60;6.67;;;;;;;;;;5129006;27;20530;-72
2022/04/03 03:34:40;;;;;;;9.17;7.13;;;;;;;;;;5115673;27;20830;-72
2022/04/03 03:37:08;;;;;;;11.43;7.43;;;;;;;;;;5120240;27;20462;-71
2022/04/03 03:39:35;;;;;;;6.80;5.33;;;;;;;;;;5126824;27;20535;-71
2022/04/03 03:42:02;;;;;;;9.07;6.07;;;;;;;;;;5127414;27;20902;-72
2022/04/03 03:44:31;;;;;;;7.07;5.40;;;;;;;;;;5117924;27;20507;-72
2022/04/03 03:46:58;;;;;;;8.90;6.60;;;;;;;;;;5128629;27;20540;-71
2022/04/03 03:49:26;;;;;;;11.03;7.30;;;;;;;;;;5127409;27;20453;-71
2022/04/03 03:51:53;;;;;;;10.10;6.33;;;;;;;;;;5126526;27;20486;-71
2022/04/03 03:54:20;;;;;;;8.10;6.37;;;;;;;;;;5120435;27;20803;-71
2022/04/03 03:56:47;;;;;;;7.53;5.47;;;;;;;;;;5128084;27;20451;-71
2022/04/03 03:59:14;;;;;;;9.97;6.60;;;;;;;;;;5125465;27;20447;-71
2022/04/03 04:01:43;;;;;;;14.67;8.20;;;;;;;;;;5124093;27;20461;-70
2022/04/03 04:04:10;;;;;;;9.17;6.67;;;;;;;;;;5121184;27;20982;-71
2022/04/03 04:06:38;;;;;;;7.63;6.73;;;;;;;;;;5123005;27;20520;-72
2022/04/03 04:09:05;;;;;;;11.13;6.00;;;;;;;;;;5124026;27;20911;-71
2022/04/03 04:11:32;;;;;;;7.53;6.70;;;;;;;;;;5128901;27;20451;-71
2022/04/03 04:14:00;;;;;;;11.40;7.07;;;;;;;;;;5125820;27;21017;-71
2022/04/03 04:16:27;;;;;;;8.43;6.67;;;;;;;;;;5109644;27;20523;-70
2022/04/03 04:18:55;;;;;;;9.43;6.83;;;;;;;;;;5124982;27;20532;-70
2022/04/03 04:21:22;;;;;;;10.93;7.40;;;;;;;;;;5124728;27;20451;-71
2022/04/03 04:23:50;;;;;;;10.20;5.97;;;;;;;;;;5131132;27;20627;-70
2022/04/03 04:26:17;;;;;;;10.17;6.87;;;;;;;;;;5130703;27;20690;-70
2022/04/03 04:28:47;;;;;;;11.37;7.47;;;;;;;;;;5127250;28;20443;-71
2022/04/03 04:31:15;;;;;;;9.50;6.80;;;;;;;;;;5123664;27;20951;-71
2022/04/03 04:33:42;;;;;;;11.70;6.73;;;;;;;;;;5121963;28;20448;-70
2022/04/03 04:36:10;;;;;;;12.13;7.10;;;;;;;;;;5124028;28;20446;-71
2022/04/03 04:38:37;;;;;;;10.27;6.57;;;;;;;;;;5118831;28;20480;-71
2022/04/03 04:41:05;;;;;;;9.20;6.00;;;;;;;;;;5125093;28;20443;-71
2022/04/03 04:43:32;;;;;;;9.77;7.47;;;;;;;;;;5123418;27;20479;-70
2022/04/03 04:46:00;;;;;;;9.07;7.23;;;;;;;;;;5125997;28;21238;-71
2022/04/03 04:48:27;;;;;;;10.00;7.67;;;;;;;;;;5131239;27;20957;-71
2022/04/03 04:50:54;;;;;;;8.10;6.43;;;;;;;;;;5122482;28;20450;-71
2022/04/03 04:53:23;;;;;;;11.40;7.60;;;;;;;;;;5119996;27;20456;-72
2022/04/03 04:55:50;;;;;;;9.80;7.03;;;;;;;;;;5126617;28;20508;-70
2022/04/03 04:58:17;;;;;;;9.23;7.23;;;;;;;;;;5128507;27;20708;-70
2022/04/03 05:00:45;;;;;;;10.83;7.77;;;;;;;;;;5125614;27;20460;-70
2022/04/03 05:03:12;;;;;;;10.03;7.50;;;;;;;;;;5120953;27;21014;-71
2022/04/03 05:05:39;;;;;;;10.10;7.50;;;;;;;;;;5126173;27;20443;-70
2022/04/03 05:08:07;;;;;;;9.57;7.33;;;;;;;;;;5134081;27;20492;-71
2022/04/03 05:10:36;;;;;;;10.10;8.00;;;;;;;;;;5127732;27;20465;-72
2022/04/03 05:13:03;;;;;;;10.37;8.23;;;;;;;;;;5124581;27;20447;-72
2022/04/03 05:15:31;;;;;;;9.00;7.70;;;;;;;;;;5133629;27;20517;-73
2022/04/03 05:17:59;;;;;;;9.40;6.50;;;;;;;;;;5126317;27;20448;-72
2022/04/03 05:20:26;;;;;;;8.80;7.70;;;;;;;;;;5121493;27;20446;-72
2022/04/03 05:22:54;;;;;;;8.67;6.43;;;;;;;;;;5135103;27;20442;-72
2022/04/03 05:25:21;;;;;;;10.13;7.17;;;;;;;;;;5133402;27;20482;-72
2022/04/03 05:27:50;;;;;;;13.67;7.00;;;;;;;;;;5134651;27;20448;-71
2022/04/03 05:30:17;;;;;;;11.33;7.87;;;;;;;;;;5131055;27;21286;-72
2022/04/03 05:32:44;;;;;;;10.03;8.00;;;;;;;;;;5125599;27;20878;-72
2022/04/03 05:35:13;;;;;;;10.00;6.90;;;;;;;;;;5129097;27;20499;-72
2022/04/03 05:37:40;;;;;;;14.03;7.97;;;;;;;;;;5121490;27;20504;-72
2022/04/03 05:40:10;;;;;;;10.60;7.10;;;;;;;;;;5120562;27;20467;-72
2022/04/03 05:42:37;;;;;;;9.97;7.20;;;;;;;;;;5127033;27;20450;-72
2022/04/03 05:45:06;;;;;;;8.93;7.20;;;;;;;;;;5129957;27;20562;-72
2022/04/03 05:47:34;;;;;;;7.03;5.70;;;;;;;;;;5128332;27;20442;-71
2022/04/03 05:50:01;;;;;;;8.33;6.67;;;;;;;;;;5128867;27;20453;-72
2022/04/03 05:52:28;;;;;;;8.60;6.30;;;;;;;;;;5129132;27;20858;-71
2022/04/03 05:54:56;;;;;;;12.20;6.80;;;;;;;;;;5132805;27;20477;-72
2022/04/03 05:57:23;;;;;;;9.20;6.77;;;;;;;;;;5128982;27;20467;-71
2022/04/03 05:59:50;;;;;;;11.50;6.83;;;;;;;;;;5133126;27;20489;-71
2022/04/03 06:02:18;;;;;;;8.80;6.70;;;;;;;;;;5120208;27;20533;-72
2022/04/03 06:04:46;;;;;;;8.60;6.33;;;;;;;;;;5123182;27;21013;-71
2022/04/03 06:07:13;;;;;;;9.27;6.50;;;;;;;;;;5133830;27;20461;-71
2022/04/03 06:09:40;;;;;;;8.50;5.93;;;;;;;;;;5128815;27;20495;-71
2022/04/03 06:12:08;;;;;;;13.30;6.40;;;;;;;;;;5132848;27;20447;-71
2022/04/03 06:14:35;;;;;;;6.47;5.67;;;;;;;;;;5127271;27;20455;-71
2022/04/03 06:17:02;;;;;;;9.00;6.33;;;;;;;;;;5118455;27;20442;-71
2022/04/03 06:19:31;;;;;;;7.53;5.93;;;;;;;;;;5132259;27;20469;-71
2022/04/03 06:21:58;;;;;;;8.13;5.97;;;;;;;;;;5128137;27;20545;-71
2022/04/03 06:24:25;;;;;;;7.93;6.70;;;;;;;;;;5133404;27;20482;-71
2022/04/03 06:26:52;;;;;;;7.90;5.60;;;;;;;;;;5132533;27;20550;-72
2022/04/03 06:29:19;;;;;;;8.47;4.83;;;;;;;;;;5122582;27;20447;-72
2022/04/03 06:31:47;;;;;;;6.60;5.07;;;;;;;;;;5119086;27;20524;-73
2022/04/03 06:34:14;;;;;;;6.80;5.00;;;;;;;;;;5120430;27;20518;-72
2022/04/03 06:36:43;;;;;;;7.00;5.10;;;;;;;;;;5119813;27;20443;-72
2022/04/03 06:39:10;;;;;;;5.87;4.80;;;;;;;;;;5124788;27;20573;-72
2022/04/03 06:41:37;;;;;;;5.43;4.13;;;;;;;;;;5125484;27;20444;-71
2022/04/03 06:44:04;;;;;;;5.80;5.17;;;;;;;;;;5117249;27;20467;-72
2022/04/03 06:46:32;;;;;;;10.50;5.10;;;;;;;;;;5127881;27;20888;-72
2022/04/03 06:48:59;;;;;;;10.13;5.60;;;;;;;;;;5112913;27;20809;-72
2022/04/03 06:51:26;;;;;;;6.10;4.70;;;;;;;;;;5114598;27;20447;-72
2022/04/03 06:53:55;;;;;;;6.90;4.70;;;;;;;;;;5112950;27;20452;-72
2022/04/03 06:56:22;;;;;;;8.90;5.23;;;;;;;;;;5105493;27;20527;-72
2022/04/03 06:58:49;;;;;;;6.70;4.87;;;;;;;;;;5122648;27;20519;-72
2022/04/03 07:01:17;;;;;;;9.03;5.17;;;;;;;;;;5106320;27;21182;-71
2022/04/03 07:03:45;;;;;;;5.10;3.80;;;;;;;;;;5111691;27;20444;-71
2022/04/03 07:06:13;;;;;;;4.70;4.00;;;;;;;;;;5102093;27;20448;-72
2022/04/03 07:08:41;;;;;;;4.43;3.80;;;;;;;;;;5115610;27;20453;-71
2022/04/03 07:11:10;;;;;;;5.60;4.50;;;;;;;;;;5128788;27;20529;-71
2022/04/03 07:13:37;;;;;;;5.10;4.57;;;;;;;;;;5121888;27;20522;-72
2022/04/03 07:16:05;;;;;;;6.77;5.00;;;;;;;;;;5121753;27;20453;-71
2022/04/03 07:18:32;;;;;;;6.50;4.20;;;;;;;;;;5102738;27;20951;-73
2022/04/03 07:20:59;;;;;;;6.33;4.67;;;;;;;;;;5110927;27;20446;-71
2022/04/03 07:23:26;;;;;;;5.40;4.17;;;;;;;;;;5114070;27;20442;-72
2022/04/03 07:25:53;;;;;;;5.30;4.17;;;;;;;;;;5114186;27;20484;-73
2022/04/03 07:28:22;;;;;;;6.10;4.50;;;;;;;;;;5112396;27;20447;-72
2022/04/03 07:30:49;;;;;;;7.23;4.53;;;;;;;;;;5121241;27;20564;-73
2022/04/03 07:33:20;;;;;;;6.93;4.23;;;;;;;;;;5131520;27;20449;-72
2022/04/03 07:35:48;;;;;;;5.37;3.93;;;;;;;;;;5133877;27;20958;-72
2022/04/03 07:38:15;;;;;;;5.60;4.40;;;;;;;;;;5121077;27;20446;-71
2022/04/03 07:40:42;;;;;;;9.60;4.70;;;;;;;;;;5132752;27;20449;-73
2022/04/03 07:43:09;;;;;;;5.47;4.33;;;;;;;;;;5132230;27;20807;-72
2022/04/03 07:45:38;;;;;;;8.60;4.20;;;;;;;;;;5123341;27;20475;-71
2022/04/03 07:48:05;;;;;;;4.20;3.50;;;;;;;;;;5129056;27;20470;-72
2022/04/03 07:50:33;;;;;;;5.97;5.03;;;;;;;;;;5120166;27;20464;-73
2022/04/03 07:53:00;;;;;;;5.37;4.27;;;;;;;;;;5129549;27;20839;-72
2022/04/03 07:55:27;;;;;;;5.77;4.00;;;;;;;;;;5132194;27;20565;-72
2022/04/03 07:57:54;;;;;;;5.37;3.70;;;;;;;;;;5129818;27;20541;-73
2022/04/03 08:00:22;;;;;;;5.00;4.50;;;;;;;;;;5122886;27;20457;-73
2022/04/03 08:02:50;;;;;;;4.47;4.07;;;;;;;;;;5126365;27;20931;-72
2022/04/03 08:05:17;;;;;;;6.43;4.10;;;;;;;;;;5119342;27;20771;-72
2022/04/03 08:07:46;;;;;;;5.10;3.43;;;;;;;;;;5131270;27;20534;-73
2022/04/03 08:10:14;;;;;;;5.97;4.43;;;;;;;;;;5131319;27;20449;-69
2022/04/03 08:12:42;;;;;;;5.00;4.50;;;;;;;;;;5131726;27;20497;-71
2022/04/03 08:15:10;;;;;;;5.57;4.50;;;;;;;;;;5130994;27;20537;-70
2022/04/03 08:17:39;;;;;;;6.50;3.93;;;;;;;;;;5122983;27;20530;-71
2022/04/03 08:20:08;;;;;;;8.03;4.77;;;;;;;;;;5131436;27;20457;-72
2022/04/03 08:22:35;;;;;;;5.57;4.00;;;;;;;;;;5130696;27;20439;-72
2022/04/03 08:25:02;;;;;;;5.00;3.50;;;;;;;;;;5131251;27;20565;-73
2022/04/03 08:27:42;;;;;;;7.10;4.77;;;;;;;;;;5124400;27;20518;-73
2022/04/03 08:30:10;;;;;;;8.23;4.60;;;;;;;;;;5118752;28;20442;-73
2022/04/03 08:32:37;;;;;;;6.70;3.90;;;;;;;;;;5128903;27;21105;-73
2022/04/03 08:35:04;;;;;;;4.70;4.07;;;;;;;;;;5129212;27;20446;-72
2022/04/03 08:37:33;;;;;;;5.20;3.70;;;;;;;;;;5114972;27;20461;-71
2022/04/03 08:40:00;;;;;;;4.40;3.90;;;;;;;;;;5123688;27;20483;-69
2022/04/03 08:42:28;;;;;;;5.30;3.77;;;;;;;;;;5134464;27;20450;-72
2022/04/03 08:44:55;;;;;;;5.17;4.67;;;;;;;;;;5133471;27;20946;-72
2022/04/03 08:47:23;;;;;;;5.57;4.80;;;;;;;;;;5121494;27;20458;-72
2022/04/03 08:49:51;;;;;;;5.63;3.80;;;;;;;;;;5125475;27;20454;-71
2022/04/03 08:52:18;;;;;;;5.50;4.33;;;;;;;;;;5131923;27;20446;-72
2022/04/03 08:54:46;;;;;;;7.00;4.83;;;;;;;;;;5131037;27;20974;-71
2022/04/03 08:57:14;;;;;;;6.37;4.57;;;;;;;;;;5116111;27;20446;-72
2022/04/03 08:59:41;;;;;;;4.50;4.07;;;;;;;;;;5133264;27;20542;-72
2022/04/03 09:02:09;;;;;;;5.17;4.50;;;;;;;;;;5121844;27;20805;-72
2022/04/03 09:04:38;;;;;;;4.93;3.93;;;;;;;;;;5119932;27;20451;-72
2022/04/03 09:07:05;;;;;;;5.33;3.70;;;;;;;;;;5120702;27;20447;-72
2022/04/03 09:09:33;;;;;;;3.90;3.50;;;;;;;;;;5120624;27;20454;-72
2022/04/03 09:12:15;;;;;;;5.17;4.33;;;;;;;;;;5120901;27;20443;-72
2022/04/03 09:14:46;;;;;;;5.00;3.47;;;;;;;;;;5118262;27;20453;-72
2022/04/03 09:17:13;;;;;;;6.07;4.27;;;;;;;;;;5124651;27;20446;-72
2022/04/03 09:19:41;;;;;;;7.13;3.97;;;;;;;;;;5124100;27;20469;-72
2022/04/03 09:22:08;;;;;;;4.60;4.00;;;;;;;;;;5117578;27;20533;-72
2022/04/03 09:24:38;;;;;;;5.63;4.13;;;;;;;;;;5124265;27;20449;-72
2022/04/03 09:27:06;;;;;;;3.77;3.17;;;;;;;;;;5131865;27;20445;-71
2022/04/03 09:29:35;;;;;;;4.03;3.63;;;;;;;;;;5127045;27;20447;-73
2022/04/03 09:32:03;;;;;;;4.40;4.00;;;;;;;;;;5121642;27;20478;-70
2022/04/03 09:34:33;;;;;;;4.77;3.80;;;;;;;;;;5127295;27;20447;-69
2022/04/03 09:37:01;;;;;;;5.43;4.00;;;;;;;;;;5123963;27;20807;-71
2022/04/03 09:39:29;;;;;;;4.70;3.83;;;;;;;;;;5121118;27;20494;-71
2022/04/03 09:41:58;;;;;;;3.97;3.40;;;;;;;;;;5123793;27;20435;-70
2022/04/03 09:44:26;;;;;;;5.30;4.33;;;;;;;;;;5131625;27;20915;-70
2022/04/03 09:47:08;;;;;;;4.23;3.43;;;;;;;;;;5121005;27;20488;-68
2022/04/03 09:49:36;;;;;;;5.40;3.43;;;;;;;;;;5120686;27;20447;-68
2022/04/03 09:52:04;;;;;;;6.83;3.73;;;;;;;;;;5114979;27;20454;-68
2022/04/03 09:54:31;;;;;;;4.40;3.30;;;;;;;;;;5119572;27;20439;-69
2022/04/03 09:57:18;;;;;;;4.20;3.77;;;;;;;;;;5124510;27;20452;-70
2022/04/03 09:59:48;;;;;;;5.60;3.17;;;;;;;;;;5119729;27;20439;-68
2022/04/03 10:02:15;;;;;;;3.83;3.30;;;;;;;;;;5129323;27;20431;-69
2022/04/03 10:04:44;;;;;;;3.77;2.73;;;;;;;;;;5116560;27;20472;-69
2022/04/03 10:07:13;;;;;;;4.63;3.30;;;;;;;;;;5123065;27;20539;-69
2022/04/03 10:09:45;;;;;;;5.90;3.67;;;;;;;;;;5113444;27;20474;-70
2022/04/03 10:12:12;;;;;;;4.43;3.73;;;;;;;;;;5117777;27;20449;-70
2022/04/03 10:14:41;;;;;;;5.43;3.70;;;5.20;99.90;;;;;;5122205;27;20962;-70
2022/04/03 10:17:08;;;;;;;5.10;3.30;;;4.60;1.00;;;;;;5126368;27;20925;-68
2022/04/03 10:19:35;;;;;;;3.50;3.20;;;4.80;1.00;;;;;;5131505;27;21041;-68
2022/04/03 10:22:06;;;;;;;6.67;3.77;;;4.60;1.00;;;;;;5129852;27;20454;-69
2022/04/03 10:24:36;;;;;;;4.73;3.63;;;4.50;1.00;;;;;;5131900;27;20538;-70
2022/04/03 10:27:08;;;;;;;6.00;4.33;;;4.50;99.90;;;;;;5126747;27;20466;-74
2022/04/03 10:29:39;;;;;;;3.43;3.13;;;4.50;1.00;;;;;;5126201;27;20527;-70
2022/04/03 10:32:07;;;;;;;3.80;3.30;;;4.50;1.00;;;;;;5113821;27;20457;-72
2022/04/03 10:34:45;;;;;;;8.83;3.13;;;4.30;1.00;;;;;;5125460;27;20469;-71
2022/04/03 10:37:26;;;;;;;5.87;3.30;;;4.40;1.00;;;;;;5110965;27;20536;-70
2022/04/03 10:39:54;;;;;;;4.77;3.27;;;4.40;1.00;;;;;;5129123;27;20508;-71
2022/04/03 10:42:26;;;;;;;4.50;3.00;;;4.30;1.00;;;;;;5127392;27;20466;-71
2022/04/03 10:45:24;;;;;;;4.00;3.30;;;4.10;1.00;;;;;;5128795;27;20449;-70
2022/04/03 10:47:51;;;;;;;4.40;2.97;;;4.40;1.00;;;;;;5075016;27;20458;-71
2022/04/03 10:50:19;;;;;;;5.53;3.30;;;4.50;1.00;;;;;;5116697;27;20443;-70
2022/04/03 10:52:58;;;;;;;5.43;3.57;;;4.40;1.00;;;;;;5116096;27;20462;-70
2022/04/03 10:55:30;;;;;;;4.00;3.37;;;4.50;1.00;;;;;;5124225;27;20450;-72
2022/04/03 10:58:02;;;;;;;5.57;3.93;;;4.60;1.00;;;;;;5117233;27;20477;-72
2022/04/03 11:00:40;;;;;;;3.93;3.13;;;;;;;;;;5130081;27;20465;-71
2022/04/03 11:03:25;;;;;;;4.50;3.33;;;;;;;;;;5121654;27;20440;-71
2022/04/03 11:05:53;;;;;;;3.37;3.07;;;4.90;1.00;;;;;;5123686;27;20564;-70
2022/04/03 11:08:43;;;;;;;3.60;3.30;;;5.20;1.00;;;;;;5111731;27;20956;-71
2022/04/03 11:11:10;;;;;;;7.00;2.90;;;5.10;99.90;;;;;;5115510;27;20449;-71
2022/04/03 11:13:40;;;;;;;3.43;2.50;;;6.00;99.90;;;;;;5127304;27;20497;-71
2022/04/03 11:16:08;;;;;;;3.80;2.80;;;5.00;99.90;;;;;;5130073;27;20464;-71
2022/04/03 11:18:36;;;;;;;3.43;2.97;;;5.50;99.90;;;;;;5117881;27;20455;-71
2022/04/03 11:21:08;;;;;;;4.57;2.57;;;5.60;99.90;;;;;;5127088;27;20554;-70
2022/04/03 11:23:38;;;;;;;2.70;2.50;;;;;;;;;;5124601;27;20533;-71
2022/04/03 11:26:05;;;;;;;4.60;2.70;;;;;;;;;;5104500;27;20484;-70
2022/04/03 11:28:34;;;;;;;6.67;2.77;;;;;;;;;;5116730;27;20489;-71
2022/04/03 11:31:01;;;;;;;2.63;2.40;;;;;;;;;;5129617;27;20442;-70
2022/04/03 11:33:29;;;;;;;4.10;3.10;;;;;;;;;;5123358;27;20454;-71
2022/04/03 11:35:57;;;;;;;2.70;2.13;;;;;;;;;;5129562;27;20887;-71
2022/04/03 11:38:24;;;;;;;3.00;2.57;;;;;;;;;;5115442;27;20501;-70
2022/04/03 11:40:55;;;;;;;6.03;2.60;;;;;;;;;;5126950;27;20431;-71
2022/04/03 11:43:23;;;;;;;3.87;2.40;;;;;;;;;;5130122;27;20450;-71
2022/04/03 11:45:56;;;;;;;3.17;2.47;;;;;;;;;;5112889;27;20562;-71
2022/04/03 11:48:24;;;;;;;5.90;2.90;;;;;;;;;;5125250;27;20526;-71
2022/04/03 11:51:03;;;;;;;5.70;2.77;;;;;;;;;;5129424;27;20453;-71
2022/04/03 11:53:31;;;;;;;5.53;3.20;;;;;;;;;;5121464;27;20525;-71
2022/04/03 11:56:05;;;;;;;3.63;3.10;;;;;;;;;;5128259;27;20454;-70
2022/04/03 11:58:33;;;;;;;3.73;2.33;;;;;;;;;;5129473;27;20906;-70
2022/04/03 12:01:00;;;;;;;6.10;2.87;;;;;;;;;;5127949;27;20573;-70
2022/04/03 12:03:28;;;;;;;2.90;2.60;;;;;;;;;;5113353;27;20530;-71
2022/04/03 12:06:10;;;;;;;5.90;3.07;;;;;;;;;;5128237;27;20493;-71
2022/04/03 12:08:40;;;;;;;3.00;2.43;;;;;;;;;;5128830;27;20537;-71
2022/04/03 12:11:24;;;;;;;3.27;2.40;;;;;;;;;;5118444;27;20443;-72
2022/04/03 12:13:52;;;;;;;4.27;2.70;;;;;;;;;;5128715;27;20529;-71
2022/04/03 12:16:21;;;;;;;3.10;2.40;;;;;;;;;;5128899;27;20546;-71
2022/04/03 12:18:49;;;;;;;2.90;2.40;;;;;;;;;;5126336;27;20934;-71
2022/04/03 12:21:17;;;;;;;3.77;3.13;;;;;;;;;;5120592;27;20457;-72
2022/04/03 12:23:59;;;;;;;3.53;2.40;;;;;;;;;;5128704;27;20463;-72
2022/04/03 12:26:28;;;;;;;3.40;2.67;;;;;;;;;;5129044;27;20593;-71
2022/04/03 12:28:56;;;;;;;6.87;2.90;;;;;;;;;;5128632;27;20962;-70
2022/04/03 12:31:27;;;;;;;2.87;2.50;;;5.50;99.90;;;;;;5110203;27;20533;-71
2022/04/03 12:34:11;;;;;;;3.23;2.20;;;4.70;99.90;;;;;;5127910;27;20449;-71
2022/04/03 12:36:43;;;;;;;5.00;2.50;;;4.60;99.90;;;;;;5118733;27;20464;-70
2022/04/03 12:39:29;;;;;;;4.17;2.53;;;4.80;99.90;;;;;;5114748;28;20513;-71
2022/04/03 12:42:08;;;;;;;2.63;2.23;;;4.90;99.90;;;;;;5104990;28;20479;-71
2022/04/03 12:44:43;;;;;;;3.30;2.83;;;5.00;99.90;;;;;;5127936;27;20540;-71
2022/04/03 12:47:15;;;;;;;2.83;2.53;;;5.40;99.90;;;;;;5127875;27;20473;-71
2022/04/03 12:49:45;;;;;;;3.23;2.90;;;5.70;99.90;;;;;;5119355;28;20464;-71
2022/04/03 12:52:12;;;;;;;4.57;3.00;;;5.40;99.90;;;;;;5127601;27;20438;-72
2022/04/03 12:54:42;;;;;;;3.30;2.50;;;5.40;99.90;;;;;;5129247;28;20451;-70
2022/04/03 13:00:14;;;;;;;3.07;2.80;;;5.00;99.90;;;;;;5119168;28;20599;-71
2022/04/03 13:02:44;;;;;;;6.40;3.03;;;5.10;99.90;;;;;;5125671;27;20513;-71
2022/04/03 13:05:14;;;;;;;3.07;2.77;;;5.00;99.90;;;;;;5120840;28;20454;-70
2022/04/03 13:07:42;;;;;;;3.67;2.83;;;5.00;99.90;;;;;;5102722;28;20533;-72
2022/04/03 13:10:15;;;;;;;3.40;2.97;;;4.80;99.90;;;;;;5127753;27;20862;-70
2022/04/03 13:12:46;;;;;;;6.00;3.23;;;4.90;99.90;;;;;;5128372;27;20466;-70
2022/04/03 13:15:13;;;;;;;4.17;3.13;;;5.10;99.90;;;;;;5127576;27;20931;-72
2022/04/03 13:17:40;;;;;;;5.13;3.70;;;4.80;99.90;;;;;;5125155;28;20455;-70
2022/04/03 13:20:08;;;;;;;4.13;2.60;;;4.80;99.90;;;;;;5126091;27;20445;-70
2022/04/03 13:22:35;;;;;;;3.80;3.00;;;4.60;99.90;;;;;;5081617;27;21126;-71
2022/04/03 13:25:02;;;;;;;3.90;2.60;;;4.70;99.90;;;;;;5123298;27;20541;-71
2022/04/03 13:27:29;;;;;;;4.00;2.80;;;4.80;99.90;;;;;;5132977;27;20478;-71
2022/04/03 13:29:58;;;;;;;3.33;3.03;;;4.90;99.90;;;;;;5131986;27;20468;-71
2022/04/03 13:32:25;;;;;;;4.00;2.67;;;4.80;99.90;;;;;;5118227;27;20455;-71
2022/04/03 13:34:52;;;;;;;3.63;3.20;;;5.10;99.90;;;;;;5129534;27;20507;-71
2022/04/03 13:37:19;;;;;;;3.63;2.60;;;5.00;99.90;;;;;;5118991;27;20457;-72
2022/04/03 13:39:46;;;;;;;3.27;2.63;;;5.20;99.90;;;;;;5118359;27;20474;-71
2022/04/03 13:42:13;;;;;;;3.90;3.07;;;5.30;99.90;;;;;;5123093;27;20530;-70
2022/04/03 13:44:41;;;;;;;6.20;3.40;;;6.20;99.90;;;;;;5131078;27;20534;-71
2022/04/03 13:47:09;;;;;;;2.87;2.67;;;5.30;99.90;;;;;;5121997;27;20525;-71
2022/04/03 13:49:36;;;;;;;3.60;2.80;;;5.70;99.90;;;;;;5120471;27;20447;-71
2022/04/03 13:52:04;;;;;;;5.47;2.90;;;5.40;99.90;;;;;;5103463;27;20637;-71
2022/04/03 13:54:31;;;;;;;2.73;2.50;;;5.50;99.90;;;;;;5116952;27;20814;-71
2022/04/03 13:56:58;;;;;;;3.60;3.07;;;5.60;99.90;;;;;;5099088;27;20456;-70
2022/04/03 13:59:25;;;;;;;3.23;2.90;;;5.80;99.90;;;;;;5117615;27;20490;-71
2022/04/03 14:01:53;;;;;;;3.53;2.70;;;5.80;99.90;;;;;;5106515;27;20460;-71
2022/04/03 14:04:21;;;;;;;3.20;2.90;;;5.80;99.90;;;;;;5116397;27;20451;-70
2022/04/03 14:06:48;;;;;;;6.80;3.60;;;5.80;99.90;;;;;;5107722;27;20507;-70
2022/04/03 14:09:15;;;;;;;5.03;2.87;;;5.80;99.90;;;;;;5101383;27;20545;-70
2022/04/03 14:11:42;;;;;;;5.50;3.40;;;5.90;99.90;;;;;;5104681;27;20810;-72
2022/04/03 14:14:09;;;;;;;5.57;3.83;;;6.00;99.90;;;;;;5120460;27;20462;-70
2022/04/03 14:16:38;;;;;;;4.30;3.30;;;6.10;99.90;;;;;;5107813;27;20853;-71
2022/04/03 14:19:05;;;;;;;3.40;3.10;;;6.00;99.90;;;;;;5107406;27;20460;-70
2022/04/03 14:21:33;;;;;;;6.00;2.37;;;6.00;99.90;;;;;;5116180;27;20582;-71
2022/04/03 14:24:00;;;;;;;4.17;3.07;;;;;;;;;;5117090;27;20956;-71
2022/04/03 14:26:28;;;;;;;4.70;2.70;;;;;;;;;;5123404;27;20529;-71
2022/04/03 14:28:55;;;;;;;5.00;2.70;;;;;;;;;;5115832;27;20447;-71